This is the latest recevied weather packets stored in our database for station/object HARMALA. If no packets are shown the sender has not sent any weather packets the latest 10 day(s).
| Time | Temp. | Humidity | Pressure | Rain* | Wind** | Luminosity | Snow |
|---|---|---|---|---|---|---|---|
| 1777950437 | 5.56° C | 95% | 999.1 hPa | 0.25 mm | - | - | - |
| 1777949237 | 5.56° C | 97% | 999.3 hPa | 0 mm | - | - | - |
| 1777948037 | 5.56° C | 96% | 998.9 hPa | 0 mm | - | - | - |
| 1777946837 | 5.56° C | 96% | 998.9 hPa | 0 mm | - | - | - |
| 1777945636 | 5.56° C | 96% | 999 hPa | 0 mm | - | - | - |
| 1777944436 | 5.56° C | 95% | 999.7 hPa | 0 mm | - | - | - |
| 1777943237 | 6.11° C | 93% | 1000 hPa | 0 mm | - | - | - |
| 1777942036 | 5.56° C | 94% | 1000.3 hPa | 0 mm | - | - | - |
| 1777940836 | 5.56° C | 94% | 1000 hPa | 0 mm | - | - | - |
| 1777939636 | 6.11° C | 94% | 1000.1 hPa | 0 mm | - | - | - |
| 1777938437 | 5.56° C | 96% | 1000.3 hPa | 0 mm | - | - | - |
| 1777937237 | 6.11° C | 95% | 1000 hPa | 0 mm | - | - | - |
| 1777936036 | 6.67° C | 94% | 1000 hPa | 0 mm | - | - | - |
| 1777934837 | 6.67° C | 93% | 1000.2 hPa | 0 mm | - | - | - |
| 1777933636 | 6.67° C | 93% | 1000.3 hPa | 0 mm | - | - | - |
| 1777932436 | 7.22° C | 92% | 1000.3 hPa | 0 mm | - | - | - |
| 1777931236 | 7.78° C | 92% | 1000.2 hPa | 0.76 mm | - | - | - |
| 1777930036 | 7.78° C | 93% | 1000.2 hPa | 0.76 mm | - | - | - |
| 1777928836 | 7.78° C | 92% | 1000.2 hPa | 0.76 mm | - | - | - |
| 1777927635 | 7.78° C | 90% | 1000.2 hPa | 0.51 mm | - | - | - |
| 1777926436 | 7.78° C | 90% | 1000.1 hPa | 0.51 mm | - | - | - |
| 1777925236 | 8.33° C | 85% | 1000.1 hPa | 0.51 mm | - | - | - |
| 1777924035 | 7.78° C | 87% | 1000.1 hPa | 0 mm | - | - | - |
| 1777922835 | 8.33° C | 83% | 1000.1 hPa | 0 mm | - | - | - |
| 1777921636 | 8.89° C | 75% | 1000 hPa | 0 mm | - | - | - |
* Rain latest hour (hover to see other rain measurements)
** Current wind speed in m/s (hover to see current wind gust speed)